Queen City, Ohio
Current Conditions -  °F | °C
As of 7:17 AM on Sunday 25 Jan 2015 (Local Time) from KI69 Reporting Station
Overcast Overcast  
Wind Chill: 34°   Ceiling: 11000
Heat Index: 37°   Visibility: 10mi
Dew Point: 32°   Wind: 5mph
Humidity: 81%   Direction: 180°S
Pressure: 29.73"   Gusts: NA
Location:  39.0938°N, 84.574°W
Report Text: KI69 251217Z AUTO 18004KT 10SM OVC110 03/00 A2973 RMK AO1
Loading
Personal Weather Stations






























Interactive Weather Map New forecast layout! Learn more

10-Day Weather Forecast

Advertisements
Track Severe Weather on mobile